sensor_id;sensor_type;location;lat;lon;timestamp;P1;durP1;ratioP1;P2;durP2;ratioP2
20140;SDS011;10231;47.702;9.826;2023-05-10T00:01:07;0.53;;;0.53;;
20140;SDS011;10231;47.702;9.826;2023-05-10T00:03:32;0.60;;;0.60;;
20140;SDS011;10231;47.702;9.826;2023-05-10T00:05:58;1.27;;;0.50;;
20140;SDS011;10231;47.702;9.826;2023-05-10T00:08:23;0.40;;;0.40;;
20140;SDS011;10231;47.702;9.826;2023-05-10T00:10:49;0.93;;;0.40;;
20140;SDS011;10231;47.702;9.826;2023-05-10T00:13:15;0.50;;;0.50;;
20140;SDS011;10231;47.702;9.826;2023-05-10T00:15:40;2.00;;;0.30;;
20140;SDS011;10231;47.702;9.826;2023-05-10T00:18:06;0.40;;;0.40;;
20140;SDS011;10231;47.702;9.826;2023-05-10T00:20:32;0.40;;;0.40;;
20140;SDS011;10231;47.702;9.826;2023-05-10T00:22:57;0.50;;;0.40;;
20140;SDS011;10231;47.702;9.826;2023-05-10T00:25:23;0.43;;;0.30;;
20140;SDS011;10231;47.702;9.826;2023-05-10T00:27:48;0.37;;;0.30;;
20140;SDS011;10231;47.702;9.826;2023-05-10T00:30:14;0.43;;;0.20;;
20140;SDS011;10231;47.702;9.826;2023-05-10T00:32:40;0.20;;;0.20;;
20140;SDS011;10231;47.702;9.826;2023-05-10T00:35:06;0.20;;;0.20;;
20140;SDS011;10231;47.702;9.826;2023-05-10T00:37:31;0.20;;;0.13;;
20140;SDS011;10231;47.702;9.826;2023-05-10T00:39:57;0.27;;;0.27;;
20140;SDS011;10231;47.702;9.826;2023-05-10T00:42:23;0.57;;;0.33;;
20140;SDS011;10231;47.702;9.826;2023-05-10T00:44:48;0.20;;;0.20;;
20140;SDS011;10231;47.702;9.826;2023-05-10T00:47:14;0.23;;;0.10;;
20140;SDS011;10231;47.702;9.826;2023-05-10T00:49:41;0.27;;;0.20;;
20140;SDS011;10231;47.702;9.826;2023-05-10T00:52:07;0.20;;;0.20;;
20140;SDS011;10231;47.702;9.826;2023-05-10T00:54:33;0.33;;;0.20;;
20140;SDS011;10231;47.702;9.826;2023-05-10T00:56:59;0.20;;;0.20;;
20140;SDS011;10231;47.702;9.826;2023-05-10T00:59:24;0.20;;;0.20;;
20140;SDS011;10231;47.702;9.826;2023-05-10T01:01:50;0.40;;;0.40;;
20140;SDS011;10231;47.702;9.826;2023-05-10T01:04:17;0.30;;;0.20;;
20140;SDS011;10231;47.702;9.826;2023-05-10T01:06:45;0.20;;;0.20;;
20140;SDS011;10231;47.702;9.826;2023-05-10T01:09:10;0.37;;;0.30;;
20140;SDS011;10231;47.702;9.826;2023-05-10T01:11:37;0.40;;;0.20;;
20140;SDS011;10231;47.702;9.826;2023-05-10T01:14:04;0.93;;;0.30;;
20140;SDS011;10231;47.702;9.826;2023-05-10T01:16:32;0.20;;;0.20;;
20140;SDS011;10231;47.702;9.826;2023-05-10T01:19:00;0.20;;;0.20;;
20140;SDS011;10231;47.702;9.826;2023-05-10T01:21:41;0.20;;;0.20;;
20140;SDS011;10231;47.702;9.826;2023-05-10T01:26:54;0.37;;;0.20;;
20140;SDS011;10231;47.702;9.826;2023-05-10T01:35:46;0.83;;;0.30;;
20140;SDS011;10231;47.702;9.826;2023-05-10T01:43:31;0.20;;;0.20;;
20140;SDS011;10231;47.702;9.826;2023-05-10T01:48:40;0.20;;;0.20;;
20140;SDS011;10231;47.702;9.826;2023-05-10T01:51:11;0.20;;;0.20;;
20140;SDS011;10231;47.702;9.826;2023-05-10T01:53:41;0.57;;;0.20;;
20140;SDS011;10231;47.702;9.826;2023-05-10T01:56:09;0.90;;;0.40;;
20140;SDS011;10231;47.702;9.826;2023-05-10T01:58:36;0.73;;;0.40;;
20140;SDS011;10231;47.702;9.826;2023-05-10T02:01:08;0.40;;;0.40;;
20140;SDS011;10231;47.702;9.826;2023-05-10T02:03:35;0.83;;;0.40;;
20140;SDS011;10231;47.702;9.826;2023-05-10T02:06:03;1.23;;;0.30;;
20140;SDS011;10231;47.702;9.826;2023-05-10T02:08:30;1.47;;;0.40;;
20140;SDS011;10231;47.702;9.826;2023-05-10T02:10:57;2.47;;;0.40;;
20140;SDS011;10231;47.702;9.826;2023-05-10T02:13:25;0.30;;;0.30;;
20140;SDS011;10231;47.702;9.826;2023-05-10T02:15:51;1.20;;;0.50;;
20140;SDS011;10231;47.702;9.826;2023-05-10T02:18:19;0.30;;;0.30;;
20140;SDS011;10231;47.702;9.826;2023-05-10T02:20:46;0.90;;;0.50;;
20140;SDS011;10231;47.702;9.826;2023-05-10T02:23:12;0.40;;;0.40;;
20140;SDS011;10231;47.702;9.826;2023-05-10T02:25:38;1.13;;;0.30;;
20140;SDS011;10231;47.702;9.826;2023-05-10T02:28:05;0.67;;;0.67;;
20140;SDS011;10231;47.702;9.826;2023-05-10T02:30:32;0.63;;;0.40;;
20140;SDS011;10231;47.702;9.826;2023-05-10T02:32:59;0.40;;;0.40;;
20140;SDS011;10231;47.702;9.826;2023-05-10T02:35:26;0.70;;;0.70;;
20140;SDS011;10231;47.702;9.826;2023-05-10T02:37:53;0.80;;;0.80;;
20140;SDS011;10231;47.702;9.826;2023-05-10T02:40:19;0.53;;;0.53;;
20140;SDS011;10231;47.702;9.826;2023-05-10T02:42:47;1.47;;;0.47;;
20140;SDS011;10231;47.702;9.826;2023-05-10T02:45:18;1.13;;;0.63;;
20140;SDS011;10231;47.702;9.826;2023-05-10T02:47:47;0.40;;;0.40;;
20140;SDS011;10231;47.702;9.826;2023-05-10T02:50:13;0.50;;;0.50;;
20140;SDS011;10231;47.702;9.826;2023-05-10T02:52:39;0.50;;;0.50;;
20140;SDS011;10231;47.702;9.826;2023-05-10T02:55:09;2.93;;;0.73;;
20140;SDS011;10231;47.702;9.826;2023-05-10T02:57:38;0.63;;;0.63;;
20140;SDS011;10231;47.702;9.826;2023-05-10T03:00:08;0.57;;;0.50;;
20140;SDS011;10231;47.702;9.826;2023-05-10T03:02:34;2.17;;;0.50;;
20140;SDS011;10231;47.702;9.826;2023-05-10T03:05:00;0.77;;;0.70;;
20140;SDS011;10231;47.702;9.826;2023-05-10T03:07:26;1.30;;;0.50;;
20140;SDS011;10231;47.702;9.826;2023-05-10T03:09:51;0.40;;;0.40;;
20140;SDS011;10231;47.702;9.826;2023-05-10T03:12:31;1.33;;;0.50;;
20140;SDS011;10231;47.702;9.826;2023-05-10T03:15:09;1.90;;;0.50;;
20140;SDS011;10231;47.702;9.826;2023-05-10T03:20:48;1.77;;;0.80;;
20140;SDS011;10231;47.702;9.826;2023-05-10T03:25:48;0.70;;;0.70;;
20140;SDS011;10231;47.702;9.826;2023-05-10T03:28:15;0.50;;;0.50;;
20140;SDS011;10231;47.702;9.826;2023-05-10T03:30:42;1.63;;;0.57;;
20140;SDS011;10231;47.702;9.826;2023-05-10T03:33:09;0.60;;;0.60;;
20140;SDS011;10231;47.702;9.826;2023-05-10T03:35:35;0.60;;;0.60;;
20140;SDS011;10231;47.702;9.826;2023-05-10T03:38:01;2.03;;;0.63;;
20140;SDS011;10231;47.702;9.826;2023-05-10T03:40:26;0.43;;;0.43;;
20140;SDS011;10231;47.702;9.826;2023-05-10T03:43:00;0.60;;;0.60;;
20140;SDS011;10231;47.702;9.826;2023-05-10T03:45:25;1.07;;;0.90;;
20140;SDS011;10231;47.702;9.826;2023-05-10T03:47:51;0.97;;;0.53;;
20140;SDS011;10231;47.702;9.826;2023-05-10T03:50:17;1.50;;;0.77;;
20140;SDS011;10231;47.702;9.826;2023-05-10T03:52:43;1.53;;;0.97;;
20140;SDS011;10231;47.702;9.826;2023-05-10T03:55:25;1.63;;;0.80;;
20140;SDS011;10231;47.702;9.826;2023-05-10T03:58:01;1.00;;;0.90;;
20140;SDS011;10231;47.702;9.826;2023-05-10T04:00:27;1.13;;;0.90;;
20140;SDS011;10231;47.702;9.826;2023-05-10T04:02:52;0.70;;;0.70;;
20140;SDS011;10231;47.702;9.826;2023-05-10T04:05:18;0.80;;;0.80;;
20140;SDS011;10231;47.702;9.826;2023-05-10T04:07:43;0.73;;;0.73;;
20140;SDS011;10231;47.702;9.826;2023-05-10T04:10:09;0.90;;;0.90;;
20140;SDS011;10231;47.702;9.826;2023-05-10T04:12:35;1.00;;;1.00;;
20140;SDS011;10231;47.702;9.826;2023-05-10T04:15:01;1.27;;;0.80;;
20140;SDS011;10231;47.702;9.826;2023-05-10T04:17:27;0.83;;;0.83;;
20140;SDS011;10231;47.702;9.826;2023-05-10T04:19:52;0.90;;;0.80;;
20140;SDS011;10231;47.702;9.826;2023-05-10T04:22:19;0.77;;;0.77;;
20140;SDS011;10231;47.702;9.826;2023-05-10T04:24:45;0.87;;;0.87;;
20140;SDS011;10231;47.702;9.826;2023-05-10T04:27:11;0.90;;;0.90;;
20140;SDS011;10231;47.702;9.826;2023-05-10T04:29:36;1.27;;;0.90;;
20140;SDS011;10231;47.702;9.826;2023-05-10T04:32:03;1.23;;;1.00;;
20140;SDS011;10231;47.702;9.826;2023-05-10T04:34:29;0.90;;;0.90;;
20140;SDS011;10231;47.702;9.826;2023-05-10T04:36:54;1.70;;;1.00;;
20140;SDS011;10231;47.702;9.826;2023-05-10T04:39:20;1.20;;;1.20;;
20140;SDS011;10231;47.702;9.826;2023-05-10T04:41:45;0.87;;;0.87;;
20140;SDS011;10231;47.702;9.826;2023-05-10T04:44:11;0.97;;;0.97;;
20140;SDS011;10231;47.702;9.826;2023-05-10T04:46:36;0.80;;;0.80;;
20140;SDS011;10231;47.702;9.826;2023-05-10T04:49:02;0.70;;;0.70;;
20140;SDS011;10231;47.702;9.826;2023-05-10T04:51:27;1.10;;;1.10;;
20140;SDS011;10231;47.702;9.826;2023-05-10T04:53:53;2.13;;;1.03;;
20140;SDS011;10231;47.702;9.826;2023-05-10T04:56:19;0.80;;;0.80;;
20140;SDS011;10231;47.702;9.826;2023-05-10T04:58:44;1.07;;;0.97;;
20140;SDS011;10231;47.702;9.826;2023-05-10T05:01:10;1.00;;;0.90;;
20140;SDS011;10231;47.702;9.826;2023-05-10T05:03:36;1.37;;;1.30;;
20140;SDS011;10231;47.702;9.826;2023-05-10T05:06:02;1.27;;;1.20;;
20140;SDS011;10231;47.702;9.826;2023-05-10T05:08:28;1.77;;;1.13;;
20140;SDS011;10231;47.702;9.826;2023-05-10T05:10:53;1.20;;;1.20;;
20140;SDS011;10231;47.702;9.826;2023-05-10T05:13:19;1.17;;;0.90;;
20140;SDS011;10231;47.702;9.826;2023-05-10T05:15:45;0.80;;;0.80;;
20140;SDS011;10231;47.702;9.826;2023-05-10T05:18:10;2.20;;;1.10;;
20140;SDS011;10231;47.702;9.826;2023-05-10T05:20:36;2.57;;;1.13;;
20140;SDS011;10231;47.702;9.826;2023-05-10T05:23:01;1.93;;;1.37;;
20140;SDS011;10231;47.702;9.826;2023-05-10T05:25:27;2.17;;;2.07;;
20140;SDS011;10231;47.702;9.826;2023-05-10T05:27:53;1.40;;;1.37;;
20140;SDS011;10231;47.702;9.826;2023-05-10T05:30:18;1.40;;;1.40;;
20140;SDS011;10231;47.702;9.826;2023-05-10T05:32:44;1.50;;;1.40;;
20140;SDS011;10231;47.702;9.826;2023-05-10T05:35:09;2.30;;;1.60;;
20140;SDS011;10231;47.702;9.826;2023-05-10T05:37:35;1.43;;;1.33;;
20140;SDS011;10231;47.702;9.826;2023-05-10T05:40:02;1.50;;;1.40;;
20140;SDS011;10231;47.702;9.826;2023-05-10T05:42:28;1.30;;;1.20;;
20140;SDS011;10231;47.702;9.826;2023-05-10T05:44:53;1.50;;;1.40;;
20140;SDS011;10231;47.702;9.826;2023-05-10T05:47:19;3.67;;;1.70;;
20140;SDS011;10231;47.702;9.826;2023-05-10T05:49:44;1.37;;;1.37;;
20140;SDS011;10231;47.702;9.826;2023-05-10T05:52:10;1.43;;;1.40;;
20140;SDS011;10231;47.702;9.826;2023-05-10T05:54:36;1.53;;;1.20;;
20140;SDS011;10231;47.702;9.826;2023-05-10T05:57:02;1.07;;;1.07;;
20140;SDS011;10231;47.702;9.826;2023-05-10T05:59:27;1.40;;;1.40;;
20140;SDS011;10231;47.702;9.826;2023-05-10T06:01:53;1.27;;;1.27;;
20140;SDS011;10231;47.702;9.826;2023-05-10T06:04:18;1.30;;;1.30;;
20140;SDS011;10231;47.702;9.826;2023-05-10T06:06:44;2.33;;;1.20;;
20140;SDS011;10231;47.702;9.826;2023-05-10T06:09:10;1.67;;;1.30;;
20140;SDS011;10231;47.702;9.826;2023-05-10T06:11:37;1.23;;;1.23;;
20140;SDS011;10231;47.702;9.826;2023-05-10T06:14:03;1.00;;;1.00;;
20140;SDS011;10231;47.702;9.826;2023-05-10T06:16:30;1.07;;;1.07;;
20140;SDS011;10231;47.702;9.826;2023-05-10T06:18:56;1.30;;;1.30;;
20140;SDS011;10231;47.702;9.826;2023-05-10T06:21:21;1.40;;;1.30;;
20140;SDS011;10231;47.702;9.826;2023-05-10T06:23:47;1.13;;;1.10;;
20140;SDS011;10231;47.702;9.826;2023-05-10T06:26:13;1.57;;;1.47;;
20140;SDS011;10231;47.702;9.826;2023-05-10T06:28:38;1.23;;;1.13;;
20140;SDS011;10231;47.702;9.826;2023-05-10T06:31:05;2.70;;;1.50;;
20140;SDS011;10231;47.702;9.826;2023-05-10T06:33:31;1.60;;;1.50;;
20140;SDS011;10231;47.702;9.826;2023-05-10T06:35:57;2.53;;;1.30;;
20140;SDS011;10231;47.702;9.826;2023-05-10T06:38:22;1.67;;;1.20;;
20140;SDS011;10231;47.702;9.826;2023-05-10T06:40:48;1.70;;;1.43;;
20140;SDS011;10231;47.702;9.826;2023-05-10T06:43:14;3.07;;;1.17;;
20140;SDS011;10231;47.702;9.826;2023-05-10T06:45:39;1.47;;;1.23;;
20140;SDS011;10231;47.702;9.826;2023-05-10T06:48:06;1.87;;;1.27;;
20140;SDS011;10231;47.702;9.826;2023-05-10T06:50:32;1.23;;;1.23;;
20140;SDS011;10231;47.702;9.826;2023-05-10T06:52:58;1.40;;;1.33;;
20140;SDS011;10231;47.702;9.826;2023-05-10T06:55:24;1.80;;;1.50;;
20140;SDS011;10231;47.702;9.826;2023-05-10T06:57:50;3.87;;;1.60;;
20140;SDS011;10231;47.702;9.826;2023-05-10T07:00:16;2.00;;;1.10;;
20140;SDS011;10231;47.702;9.826;2023-05-10T07:02:42;1.20;;;1.10;;
20140;SDS011;10231;47.702;9.826;2023-05-10T07:05:08;2.93;;;1.00;;
20140;SDS011;10231;47.702;9.826;2023-05-10T07:07:34;1.43;;;0.97;;
20140;SDS011;10231;47.702;9.826;2023-05-10T07:10:00;1.10;;;1.00;;
20140;SDS011;10231;47.702;9.826;2023-05-10T07:12:25;3.33;;;1.10;;
20140;SDS011;10231;47.702;9.826;2023-05-10T07:14:51;1.70;;;1.10;;
20140;SDS011;10231;47.702;9.826;2023-05-10T07:17:17;1.53;;;1.47;;
20140;SDS011;10231;47.702;9.826;2023-05-10T07:19:42;2.10;;;1.00;;
20140;SDS011;10231;47.702;9.826;2023-05-10T07:22:08;1.33;;;0.87;;
20140;SDS011;10231;47.702;9.826;2023-05-10T07:24:34;0.93;;;0.90;;
20140;SDS011;10231;47.702;9.826;2023-05-10T07:27:00;1.70;;;1.10;;
20140;SDS011;10231;47.702;9.826;2023-05-10T07:29:25;1.43;;;0.83;;
20140;SDS011;10231;47.702;9.826;2023-05-10T07:31:51;1.27;;;1.20;;
20140;SDS011;10231;47.702;9.826;2023-05-10T07:34:17;1.10;;;1.10;;
20140;SDS011;10231;47.702;9.826;2023-05-10T07:36:42;1.53;;;1.10;;
20140;SDS011;10231;47.702;9.826;2023-05-10T07:39:08;1.80;;;1.30;;
20140;SDS011;10231;47.702;9.826;2023-05-10T07:41:33;2.37;;;1.40;;
20140;SDS011;10231;47.702;9.826;2023-05-10T07:43:59;1.10;;;1.10;;
20140;SDS011;10231;47.702;9.826;2023-05-10T07:46:25;1.57;;;1.33;;
20140;SDS011;10231;47.702;9.826;2023-05-10T07:48:50;1.40;;;1.30;;
20140;SDS011;10231;47.702;9.826;2023-05-10T07:51:16;1.17;;;1.17;;
20140;SDS011;10231;47.702;9.826;2023-05-10T07:53:41;1.27;;;1.27;;
20140;SDS011;10231;47.702;9.826;2023-05-10T07:56:23;1.60;;;1.20;;
20140;SDS011;10231;47.702;9.826;2023-05-10T07:58:57;1.20;;;1.20;;
20140;SDS011;10231;47.702;9.826;2023-05-10T08:01:25;1.33;;;1.30;;
20140;SDS011;10231;47.702;9.826;2023-05-10T08:03:51;1.70;;;1.47;;
20140;SDS011;10231;47.702;9.826;2023-05-10T08:06:18;1.40;;;1.30;;
20140;SDS011;10231;47.702;9.826;2023-05-10T08:08:48;1.40;;;1.40;;
20140;SDS011;10231;47.702;9.826;2023-05-10T08:11:18;1.00;;;1.00;;
20140;SDS011;10231;47.702;9.826;2023-05-10T08:13:44;1.80;;;1.60;;
20140;SDS011;10231;47.702;9.826;2023-05-10T08:16:10;2.30;;;1.23;;
20140;SDS011;10231;47.702;9.826;2023-05-10T08:18:36;2.93;;;2.70;;
20140;SDS011;10231;47.702;9.826;2023-05-10T08:21:02;1.50;;;1.30;;
20140;SDS011;10231;47.702;9.826;2023-05-10T08:23:28;1.53;;;1.33;;
20140;SDS011;10231;47.702;9.826;2023-05-10T08:25:53;1.20;;;1.20;;
20140;SDS011;10231;47.702;9.826;2023-05-10T08:28:19;1.60;;;1.50;;
20140;SDS011;10231;47.702;9.826;2023-05-10T08:30:44;1.67;;;1.57;;
20140;SDS011;10231;47.702;9.826;2023-05-10T08:33:10;1.20;;;1.20;;
20140;SDS011;10231;47.702;9.826;2023-05-10T08:35:35;1.67;;;1.37;;
20140;SDS011;10231;47.702;9.826;2023-05-10T08:38:01;2.10;;;1.37;;
20140;SDS011;10231;47.702;9.826;2023-05-10T08:40:27;1.50;;;1.40;;
20140;SDS011;10231;47.702;9.826;2023-05-10T08:42:59;0.97;;;0.97;;
20140;SDS011;10231;47.702;9.826;2023-05-10T08:45:36;1.23;;;1.10;;
20140;SDS011;10231;47.702;9.826;2023-05-10T08:48:03;0.90;;;0.90;;
20140;SDS011;10231;47.702;9.826;2023-05-10T08:50:31;1.90;;;1.23;;
20140;SDS011;10231;47.702;9.826;2023-05-10T08:52:57;1.17;;;1.10;;
20140;SDS011;10231;47.702;9.826;2023-05-10T08:55:25;1.20;;;1.20;;
20140;SDS011;10231;47.702;9.826;2023-05-10T08:57:51;2.13;;;1.30;;
20140;SDS011;10231;47.702;9.826;2023-05-10T09:00:17;2.23;;;1.27;;
20140;SDS011;10231;47.702;9.826;2023-05-10T09:02:43;1.43;;;1.33;;
20140;SDS011;10231;47.702;9.826;2023-05-10T09:05:10;1.87;;;1.77;;
20140;SDS011;10231;47.702;9.826;2023-05-10T09:07:37;1.27;;;1.17;;
20140;SDS011;10231;47.702;9.826;2023-05-10T09:10:03;1.20;;;1.10;;
20140;SDS011;10231;47.702;9.826;2023-05-10T09:12:29;0.90;;;0.90;;
20140;SDS011;10231;47.702;9.826;2023-05-10T09:14:55;0.93;;;0.93;;
20140;SDS011;10231;47.702;9.826;2023-05-10T09:17:23;1.57;;;0.90;;
20140;SDS011;10231;47.702;9.826;2023-05-10T09:19:56;1.00;;;1.00;;
20140;SDS011;10231;47.702;9.826;2023-05-10T09:22:23;0.73;;;0.73;;
20140;SDS011;10231;47.702;9.826;2023-05-10T09:25:02;0.50;;;0.50;;
20140;SDS011;10231;47.702;9.826;2023-05-10T09:27:36;1.10;;;0.87;;
20140;SDS011;10231;47.702;9.826;2023-05-10T09:30:03;1.33;;;1.00;;
20140;SDS011;10231;47.702;9.826;2023-05-10T09:32:37;0.90;;;0.90;;
20140;SDS011;10231;47.702;9.826;2023-05-10T09:37:38;0.80;;;0.70;;
20140;SDS011;10231;47.702;9.826;2023-05-10T09:40:06;0.80;;;0.80;;
20140;SDS011;10231;47.702;9.826;2023-05-10T09:42:35;0.77;;;0.77;;
20140;SDS011;10231;47.702;9.826;2023-05-10T09:45:02;1.03;;;0.87;;
20140;SDS011;10231;47.702;9.826;2023-05-10T09:47:31;0.73;;;0.70;;
20140;SDS011;10231;47.702;9.826;2023-05-10T09:49:57;1.67;;;1.00;;
20140;SDS011;10231;47.702;9.826;2023-05-10T09:52:28;1.30;;;0.90;;
20140;SDS011;10231;47.702;9.826;2023-05-10T09:54:54;2.63;;;1.00;;
20140;SDS011;10231;47.702;9.826;2023-05-10T09:57:20;1.17;;;0.90;;
20140;SDS011;10231;47.702;9.826;2023-05-10T09:59:47;1.40;;;1.10;;
20140;SDS011;10231;47.702;9.826;2023-05-10T10:02:13;0.97;;;0.60;;
20140;SDS011;10231;47.702;9.826;2023-05-10T10:04:39;0.80;;;0.80;;
20140;SDS011;10231;47.702;9.826;2023-05-10T10:07:05;1.33;;;0.87;;
20140;SDS011;10231;47.702;9.826;2023-05-10T10:09:31;0.97;;;0.70;;
20140;SDS011;10231;47.702;9.826;2023-05-10T10:11:58;1.20;;;0.70;;
20140;SDS011;10231;47.702;9.826;2023-05-10T10:14:25;2.97;;;0.90;;
20140;SDS011;10231;47.702;9.826;2023-05-10T10:16:51;0.97;;;0.70;;
20140;SDS011;10231;47.702;9.826;2023-05-10T10:19:18;0.87;;;0.87;;
20140;SDS011;10231;47.702;9.826;2023-05-10T10:21:45;1.00;;;0.90;;
20140;SDS011;10231;47.702;9.826;2023-05-10T10:24:10;0.70;;;0.70;;
20140;SDS011;10231;47.702;9.826;2023-05-10T10:26:36;0.77;;;0.70;;
20140;SDS011;10231;47.702;9.826;2023-05-10T10:29:13;0.80;;;0.80;;
20140;SDS011;10231;47.702;9.826;2023-05-10T10:34:57;0.87;;;0.80;;
20140;SDS011;10231;47.702;9.826;2023-05-10T10:37:22;1.17;;;1.03;;
20140;SDS011;10231;47.702;9.826;2023-05-10T10:39:49;1.07;;;0.97;;
20140;SDS011;10231;47.702;9.826;2023-05-10T10:42:15;1.37;;;0.90;;
20140;SDS011;10231;47.702;9.826;2023-05-10T10:45:14;0.80;;;0.80;;
20140;SDS011;10231;47.702;9.826;2023-05-10T10:47:40;3.30;;;1.00;;
20140;SDS011;10231;47.702;9.826;2023-05-10T10:50:08;1.30;;;1.20;;
20140;SDS011;10231;47.702;9.826;2023-05-10T10:52:37;1.30;;;1.20;;
20140;SDS011;10231;47.702;9.826;2023-05-10T10:57:49;1.00;;;0.87;;
20140;SDS011;10231;47.702;9.826;2023-05-10T11:00:27;2.50;;;1.53;;
20140;SDS011;10231;47.702;9.826;2023-05-10T11:03:03;1.70;;;1.60;;
20140;SDS011;10231;47.702;9.826;2023-05-10T11:08:07;1.57;;;1.07;;
20140;SDS011;10231;47.702;9.826;2023-05-10T11:10:39;1.17;;;0.90;;
20140;SDS011;10231;47.702;9.826;2023-05-10T11:13:06;1.53;;;1.00;;
20140;SDS011;10231;47.702;9.826;2023-05-10T11:15:36;1.03;;;1.00;;
20140;SDS011;10231;47.702;9.826;2023-05-10T11:20:49;1.47;;;1.37;;
20140;SDS011;10231;47.702;9.826;2023-05-10T11:26:07;2.47;;;1.10;;
20140;SDS011;10231;47.702;9.826;2023-05-10T11:28:41;2.87;;;1.17;;
20140;SDS011;10231;47.702;9.826;2023-05-10T11:31:07;0.90;;;0.80;;
20140;SDS011;10231;47.702;9.826;2023-05-10T11:33:42;2.47;;;1.10;;
20140;SDS011;10231;47.702;9.826;2023-05-10T11:36:16;1.33;;;0.90;;
20140;SDS011;10231;47.702;9.826;2023-05-10T11:38:46;1.23;;;0.90;;
20140;SDS011;10231;47.702;9.826;2023-05-10T11:41:12;1.93;;;1.10;;
20140;SDS011;10231;47.702;9.826;2023-05-10T11:43:38;2.77;;;1.37;;
20140;SDS011;10231;47.702;9.826;2023-05-10T11:46:06;1.10;;;1.00;;
20140;SDS011;10231;47.702;9.826;2023-05-10T11:48:39;5.30;;;1.43;;
20140;SDS011;10231;47.702;9.826;2023-05-10T11:51:09;0.57;;;0.57;;
20140;SDS011;10231;47.702;9.826;2023-05-10T11:53:35;0.77;;;0.50;;
20140;SDS011;10231;47.702;9.826;2023-05-10T11:56:03;0.50;;;0.50;;
20140;SDS011;10231;47.702;9.826;2023-05-10T11:58:30;0.73;;;0.60;;
20140;SDS011;10231;47.702;9.826;2023-05-10T12:00:57;0.57;;;0.50;;
20140;SDS011;10231;47.702;9.826;2023-05-10T12:03:24;1.80;;;0.70;;
20140;SDS011;10231;47.702;9.826;2023-05-10T12:05:49;2.57;;;0.70;;
20140;SDS011;10231;47.702;9.826;2023-05-10T12:08:15;1.97;;;0.73;;
20140;SDS011;10231;47.702;9.826;2023-05-10T12:10:46;0.87;;;0.67;;
20140;SDS011;10231;47.702;9.826;2023-05-10T12:13:12;1.23;;;0.60;;
20140;SDS011;10231;47.702;9.826;2023-05-10T12:15:39;0.80;;;0.77;;
20140;SDS011;10231;47.702;9.826;2023-05-10T12:18:05;0.70;;;0.70;;
20140;SDS011;10231;47.702;9.826;2023-05-10T12:20:33;1.17;;;0.80;;
20140;SDS011;10231;47.702;9.826;2023-05-10T12:22:58;1.30;;;1.00;;
20140;SDS011;10231;47.702;9.826;2023-05-10T12:25:29;0.80;;;0.80;;
20140;SDS011;10231;47.702;9.826;2023-05-10T12:28:00;2.97;;;1.00;;
20140;SDS011;10231;47.702;9.826;2023-05-10T12:30:29;1.90;;;0.90;;
20140;SDS011;10231;47.702;9.826;2023-05-10T12:32:59;2.40;;;1.73;;
20140;SDS011;10231;47.702;9.826;2023-05-10T12:35:45;1.60;;;1.10;;
20140;SDS011;10231;47.702;9.826;2023-05-10T12:41:01;0.90;;;0.90;;
20140;SDS011;10231;47.702;9.826;2023-05-10T12:43:28;1.90;;;1.10;;
20140;SDS011;10231;47.702;9.826;2023-05-10T12:45:54;0.50;;;0.30;;
20140;SDS011;10231;47.702;9.826;2023-05-10T12:48:20;0.60;;;0.40;;
20140;SDS011;10231;47.702;9.826;2023-05-10T12:50:46;0.57;;;0.40;;
20140;SDS011;10231;47.702;9.826;2023-05-10T12:53:13;0.57;;;0.30;;
20140;SDS011;10231;47.702;9.826;2023-05-10T12:55:40;0.30;;;0.30;;
20140;SDS011;10231;47.702;9.826;2023-05-10T12:58:06;2.03;;;0.30;;
20140;SDS011;10231;47.702;9.826;2023-05-10T13:00:32;0.40;;;0.40;;
20140;SDS011;10231;47.702;9.826;2023-05-10T13:02:58;0.50;;;0.40;;
20140;SDS011;10231;47.702;9.826;2023-05-10T13:05:23;0.47;;;0.30;;
20140;SDS011;10231;47.702;9.826;2023-05-10T13:07:49;0.87;;;0.30;;
20140;SDS011;10231;47.702;9.826;2023-05-10T13:10:14;0.80;;;0.33;;
20140;SDS011;10231;47.702;9.826;2023-05-10T13:12:40;0.30;;;0.30;;
20140;SDS011;10231;47.702;9.826;2023-05-10T13:15:06;0.93;;;0.23;;
20140;SDS011;10231;47.702;9.826;2023-05-10T13:17:32;1.10;;;0.40;;
20140;SDS011;10231;47.702;9.826;2023-05-10T13:19:58;1.30;;;1.20;;
20140;SDS011;10231;47.702;9.826;2023-05-10T13:22:23;3.00;;;1.80;;
20140;SDS011;10231;47.702;9.826;2023-05-10T13:24:49;2.70;;;1.50;;
20140;SDS011;10231;47.702;9.826;2023-05-10T13:27:14;1.60;;;1.50;;
20140;SDS011;10231;47.702;9.826;2023-05-10T13:29:40;2.63;;;1.60;;
20140;SDS011;10231;47.702;9.826;2023-05-10T13:32:05;1.50;;;1.30;;
20140;SDS011;10231;47.702;9.826;2023-05-10T13:34:31;1.90;;;1.50;;
20140;SDS011;10231;47.702;9.826;2023-05-10T13:36:56;1.80;;;1.23;;
20140;SDS011;10231;47.702;9.826;2023-05-10T13:39:22;2.20;;;1.37;;
20140;SDS011;10231;47.702;9.826;2023-05-10T13:41:48;2.53;;;1.37;;
20140;SDS011;10231;47.702;9.826;2023-05-10T13:44:13;1.63;;;1.10;;
20140;SDS011;10231;47.702;9.826;2023-05-10T13:46:40;3.53;;;1.23;;
20140;SDS011;10231;47.702;9.826;2023-05-10T13:49:07;1.57;;;1.30;;
20140;SDS011;10231;47.702;9.826;2023-05-10T13:51:34;4.23;;;1.47;;
20140;SDS011;10231;47.702;9.826;2023-05-10T13:53:59;4.83;;;1.50;;
20140;SDS011;10231;47.702;9.826;2023-05-10T13:56:25;2.33;;;1.10;;
20140;SDS011;10231;47.702;9.826;2023-05-10T13:58:51;1.83;;;1.00;;
20140;SDS011;10231;47.702;9.826;2023-05-10T14:01:17;1.80;;;0.90;;
20140;SDS011;10231;47.702;9.826;2023-05-10T14:03:42;2.07;;;0.73;;
20140;SDS011;10231;47.702;9.826;2023-05-10T14:06:08;2.17;;;0.73;;
20140;SDS011;10231;47.702;9.826;2023-05-10T14:08:34;1.90;;;0.70;;
20140;SDS011;10231;47.702;9.826;2023-05-10T14:11:00;1.07;;;0.60;;
20140;SDS011;10231;47.702;9.826;2023-05-10T14:13:26;1.50;;;0.60;;
20140;SDS011;10231;47.702;9.826;2023-05-10T14:15:53;0.97;;;0.70;;
20140;SDS011;10231;47.702;9.826;2023-05-10T14:18:19;2.67;;;1.07;;
20140;SDS011;10231;47.702;9.826;2023-05-10T14:20:45;0.60;;;0.60;;
20140;SDS011;10231;47.702;9.826;2023-05-10T14:23:10;2.37;;;0.70;;
20140;SDS011;10231;47.702;9.826;2023-05-10T14:25:37;1.70;;;0.97;;
20140;SDS011;10231;47.702;9.826;2023-05-10T14:28:05;0.50;;;0.50;;
20140;SDS011;10231;47.702;9.826;2023-05-10T14:30:31;1.80;;;0.70;;
20140;SDS011;10231;47.702;9.826;2023-05-10T14:32:56;3.03;;;1.00;;
20140;SDS011;10231;47.702;9.826;2023-05-10T14:35:23;0.80;;;0.57;;
20140;SDS011;10231;47.702;9.826;2023-05-10T14:37:48;2.27;;;0.87;;
20140;SDS011;10231;47.702;9.826;2023-05-10T14:40:14;1.27;;;0.60;;
20140;SDS011;10231;47.702;9.826;2023-05-10T14:42:40;3.17;;;1.17;;
20140;SDS011;10231;47.702;9.826;2023-05-10T14:45:07;1.17;;;0.97;;
20140;SDS011;10231;47.702;9.826;2023-05-10T14:47:33;0.70;;;0.70;;
20140;SDS011;10231;47.702;9.826;2023-05-10T14:49:59;1.23;;;0.60;;
20140;SDS011;10231;47.702;9.826;2023-05-10T14:52:25;0.60;;;0.60;;
20140;SDS011;10231;47.702;9.826;2023-05-10T14:54:50;2.17;;;0.53;;
20140;SDS011;10231;47.702;9.826;2023-05-10T14:57:16;0.60;;;0.60;;
20140;SDS011;10231;47.702;9.826;2023-05-10T14:59:42;0.63;;;0.60;;
20140;SDS011;10231;47.702;9.826;2023-05-10T15:02:07;1.63;;;0.80;;
20140;SDS011;10231;47.702;9.826;2023-05-10T15:04:33;0.50;;;0.50;;
20140;SDS011;10231;47.702;9.826;2023-05-10T15:06:58;0.67;;;0.50;;
20140;SDS011;10231;47.702;9.826;2023-05-10T15:09:24;1.03;;;0.50;;
20140;SDS011;10231;47.702;9.826;2023-05-10T15:11:50;0.63;;;0.43;;
20140;SDS011;10231;47.702;9.826;2023-05-10T15:14:16;0.90;;;0.63;;
20140;SDS011;10231;47.702;9.826;2023-05-10T15:16:41;2.83;;;0.70;;
20140;SDS011;10231;47.702;9.826;2023-05-10T15:19:07;1.03;;;0.90;;
20140;SDS011;10231;47.702;9.826;2023-05-10T15:21:32;0.77;;;0.60;;
20140;SDS011;10231;47.702;9.826;2023-05-10T15:24:03;2.40;;;1.07;;
20140;SDS011;10231;47.702;9.826;2023-05-10T15:26:30;0.67;;;0.40;;
20140;SDS011;10231;47.702;9.826;2023-05-10T15:28:55;0.80;;;0.57;;